Time;durP1;ratioP1;P1;durP2;ratioP2;P2;SDS_P1;SDS_P2;PMS_P1;PMS_P2;Temp;Humidity;BMP_temperature;BMP_pressure;BME280_temperature;BME280_humidity;BME280_pressure;Samples;Min_cycle;Max_cycle;Signal;HPM_P1;HPM_P2
2022/09/11 00:00:18;;;;;;;1.95;0.73;;;20.30;96.60;;;;;;5092986;28;20024;-75
2022/09/11 00:02:43;;;;;;;0.63;0.60;;;20.30;96.20;;;;;;5103087;28;20443;-75
2022/09/11 00:05:09;;;;;;;1.25;0.50;;;20.30;96.60;;;;;;5093943;28;20031;-75
2022/09/11 00:07:35;;;;;;;1.27;0.70;;;20.20;96.10;;;;;;5100391;28;20036;-75
2022/09/11 00:10:01;;;;;;;1.55;0.80;;;20.20;95.90;;;;;;5093586;28;20387;-75
2022/09/11 00:12:27;;;;;;;0.95;0.50;;;20.20;96.00;;;;;;5098849;28;20035;-75
2022/09/11 00:14:52;;;;;;;1.15;0.60;;;20.30;96.10;;;;;;5096251;28;20487;-75
2022/09/11 00:17:18;;;;;;;1.13;0.60;;;20.30;95.90;;;;;;5099514;28;20015;-75
2022/09/11 00:19:44;;;;;;;1.23;0.50;;;20.30;95.70;;;;;;5095961;28;20028;-75
2022/09/11 00:22:10;;;;;;;1.58;0.50;;;20.30;95.90;;;;;;5098085;28;20059;-75
2022/09/11 00:24:35;;;;;;;1.05;0.43;;;20.30;95.70;;;;;;5098227;28;20115;-75
2022/09/11 00:27:01;;;;;;;3.33;0.60;;;20.30;95.80;;;;;;5096631;28;20102;-75
2022/09/11 00:29:28;;;;;;;1.15;0.70;;;20.30;95.50;;;;;;5104181;28;20043;-75
2022/09/11 00:31:56;;;;;;;2.30;0.60;;;20.30;95.60;;;;;;5094570;28;20095;-75
2022/09/11 00:34:22;;;;;;;4.13;0.80;;;20.40;96.20;;;;;;5100091;28;20032;-75
2022/09/11 00:36:47;;;;;;;1.48;0.47;;;20.30;96.20;;;;;;5094980;28;20099;-75
2022/09/11 00:39:13;;;;;;;0.50;0.50;;;20.30;96.10;;;;;;5099630;28;20031;-75
2022/09/11 00:41:45;;;;;;;1.75;0.65;;;20.40;95.90;;;;;;5093329;28;20030;-75
2022/09/11 00:44:16;;;;;;;1.05;0.60;;;20.40;95.80;;;;;;5101222;28;20034;-74
2022/09/11 00:46:54;;;;;;;0.50;0.50;;;20.30;96.00;;;;;;5094664;28;20016;-76
2022/09/11 00:49:29;;;;;;;0.90;0.50;;;20.40;96.20;;;;;;5095999;28;20063;-75
2022/09/11 00:52:01;;;;;;;0.80;0.45;;;20.40;96.10;;;;;;5105604;28;20066;-75
2022/09/11 00:54:32;;;;;;;1.85;0.68;;;20.40;96.00;;;;;;5097366;28;20032;-75
2022/09/11 00:57:02;;;;;;;2.05;0.47;;;20.40;96.30;;;;;;5097770;28;20077;-75
2022/09/11 00:59:30;;;;;;;1.60;0.57;;;20.40;95.80;;;;;;5103713;28;20118;-75
2022/09/11 01:01:56;;;;;;;1.23;0.55;;;20.30;95.70;;;;;;5096291;28;20028;-75
2022/09/11 01:04:22;;;;;;;2.28;0.80;;;20.40;95.50;;;;;;5102992;28;20042;-75
2022/09/11 01:06:53;;;;;;;2.58;0.60;;;20.40;95.70;;;;;;5106057;28;20354;-75
2022/09/11 01:09:19;;;;;;;0.40;0.40;;;20.30;95.60;;;;;;5093200;28;20032;-75
2022/09/11 01:12:09;;;;;;;2.30;0.43;;;20.30;95.40;;;;;;5106055;28;20095;-76
2022/09/11 01:14:56;;;;;;;2.45;0.55;;;20.40;95.40;;;;;;5099700;28;20389;-75
2022/09/11 01:17:45;;;;;;;0.50;0.40;;;20.40;95.00;;;;;;5105598;28;20045;-75
2022/09/11 01:20:55;;;;;;;0.45;0.45;;;20.40;95.00;;;;;;5092522;28;20028;-75
2022/09/11 01:23:47;;;;;;;3.58;0.47;;;20.40;95.60;;;;;;5069223;28;20054;-75
2022/09/11 01:26:13;;;;;;;0.50;0.50;;;20.40;95.30;;;;;;5109589;28;20035;-75
2022/09/11 01:29:11;;;;;;;1.10;0.43;;;20.40;94.60;;;;;;5107016;28;20054;-75
2022/09/11 01:31:58;;;;;;;0.88;0.50;;;20.50;95.30;;;;;;5070504;28;20145;-75
2022/09/11 01:34:51;;;;;;;0.45;0.45;;;20.40;94.90;;;;;;5096062;28;20030;-75
2022/09/11 01:37:30;;;;;;;0.60;0.60;;;20.50;95.40;;;;;;5103822;28;20115;-75
2022/09/11 01:40:03;;;;;;;1.15;0.52;;;20.50;95.20;;;;;;5094162;28;20502;-74
2022/09/11 01:42:33;;;;;;;1.95;0.65;;;20.50;95.50;;;;;;5096594;28;20032;-75
2022/09/11 01:45:00;;;;;;;1.13;0.47;;;20.50;95.10;;;;;;5108450;28;20023;-75
2022/09/11 01:47:27;;;;;;;3.30;0.40;;;20.40;95.30;;;;;;5104946;28;20036;-75
2022/09/11 01:50:01;;;;;;;3.28;0.70;;;20.50;95.00;;;;;;5094430;28;20036;-75
2022/09/11 01:52:32;;;;;;;1.60;0.50;;;20.40;94.90;;;;;;5097048;28;20547;-75
2022/09/11 01:55:09;;;;;;;1.75;0.50;;;20.40;95.30;;;;;;5108465;28;20027;-75
2022/09/11 01:57:41;;;;;;;0.55;0.55;;;20.40;95.40;;;;;;5105132;28;20092;-75
2022/09/11 02:00:10;;;;;;;1.45;0.73;;;20.40;95.10;;;;;;5092598;28;20055;-75
2022/09/11 02:03:02;;;;;;;0.47;0.40;;;20.50;95.60;;;;;;5099624;28;20027;-75
2022/09/11 02:05:33;;;;;;;0.70;0.60;;;20.50;95.80;;;;;;5111266;28;20535;-75
2022/09/11 02:08:06;;;;;;;1.13;0.50;;;20.50;96.10;;;;;;5102698;28;20446;-75
2022/09/11 02:10:55;;;;;;;0.60;0.52;;;20.50;96.50;;;;;;5089508;28;20081;-75
2022/09/11 02:13:22;;;;;;;1.38;0.50;;;20.50;96.90;;;;;;5101264;28;20035;-75
2022/09/11 02:15:53;;;;;;;0.70;0.40;;;20.40;96.70;;;;;;5090700;28;20020;-74
2022/09/11 02:18:24;;;;;;;2.83;0.70;;;20.40;96.90;;;;;;5101026;28;20016;-74
2022/09/11 02:20:51;;;;;;;0.60;0.60;;;20.40;96.80;;;;;;5090570;28;20111;-74
2022/09/11 02:23:17;;;;;;;3.33;0.60;;;20.40;97.00;;;;;;5101546;28;20066;-74
2022/09/11 02:25:43;;;;;;;1.45;0.63;;;20.40;96.90;;;;;;5089411;28;20032;-74
2022/09/11 02:28:09;;;;;;;1.17;0.50;;;20.30;97.00;;;;;;5097540;28;20035;-74
2022/09/11 02:30:37;;;;;;;1.02;0.50;;;20.30;96.20;;;;;;5101060;28;20028;-74
2022/09/11 02:33:03;;;;;;;0.88;0.60;;;20.30;96.80;;;;;;5102015;28;20062;-75
2022/09/11 02:35:39;;;;;;;0.70;0.63;;;20.20;96.40;;;;;;5090501;28;20059;-74
2022/09/11 02:38:10;;;;;;;1.83;0.60;;;20.20;96.70;;;;;;5100749;28;20118;-75
2022/09/11 02:40:37;;;;;;;1.38;0.60;;;20.20;97.10;;;;;;5090432;28;20032;-75
2022/09/11 02:43:21;;;;;;;0.52;0.40;;;20.10;97.00;;;;;;5101554;28;20028;-75
2022/09/11 02:45:53;;;;;;;2.70;0.50;;;20.00;97.30;;;;;;5089103;28;20103;-75
2022/09/11 02:48:24;;;;;;;1.77;0.63;;;20.00;97.30;;;;;;5103314;28;20044;-74
2022/09/11 02:50:59;;;;;;;0.50;0.50;;;19.90;96.90;;;;;;5094458;28;20103;-74
2022/09/11 02:53:42;;;;;;;3.53;0.60;;;20.00;97.40;;;;;;5105248;28;20042;-73
2022/09/11 02:56:14;;;;;;;0.95;0.55;;;20.00;97.60;;;;;;5095678;28;20028;-74
2022/09/11 02:58:49;;;;;;;1.42;0.60;;;20.00;97.60;;;;;;5103367;28;20056;-73
2022/09/11 03:01:15;;;;;;;0.50;0.50;;;20.00;97.80;;;;;;5095257;28;20115;-74
2022/09/11 03:03:43;;;;;;;2.30;0.88;;;20.00;97.50;;;;;;5105004;28;20482;-74
2022/09/11 03:06:29;;;;;;;1.10;0.52;;;20.10;97.50;;;;;;5112490;28;20032;-74
2022/09/11 03:08:55;;;;;;;0.50;0.50;;;20.00;97.80;;;;;;5098174;28;20043;-74
2022/09/11 03:11:20;;;;;;;0.93;0.65;;;20.10;97.10;;;;;;5096626;28;20131;-74
2022/09/11 03:13:46;;;;;;;1.75;0.82;;;20.10;97.20;;;;;;5102804;28;20020;-74
2022/09/11 03:16:12;;;;;;;0.50;0.50;;;20.10;97.80;;;;;;5095805;28;20492;-74
2022/09/11 03:18:38;;;;;;;0.52;0.52;;;20.10;97.70;;;;;;5102707;28;20479;-74
2022/09/11 03:21:04;;;;;;;0.90;0.55;;;20.10;97.60;;;;;;5094397;28;20019;-74
2022/09/11 03:23:31;;;;;;;0.95;0.52;;;20.10;97.40;;;;;;5105135;28;20025;-74
2022/09/11 03:25:57;;;;;;;1.40;0.55;;;20.10;96.70;;;;;;5094098;28;20032;-74
2022/09/11 03:28:23;;;;;;;1.33;0.60;;;20.00;97.20;;;;;;5104653;28;20048;-74
2022/09/11 03:30:49;;;;;;;1.52;0.52;;;20.00;97.60;;;;;;5092166;28;20568;-74
2022/09/11 03:33:18;;;;;;;0.70;0.70;;;20.10;97.90;;;;;;5101619;28;20076;-74
2022/09/11 03:35:44;;;;;;;0.70;0.70;;;20.10;97.90;;;;;;5113309;28;20034;-74
2022/09/11 03:38:10;;;;;;;0.90;0.70;;;20.10;98.40;;;;;;5105081;28;20030;-74
2022/09/11 03:40:37;;;;;;;1.25;0.60;;;20.10;98.00;;;;;;5093325;28;20028;-75
2022/09/11 03:43:03;;;;;;;0.98;0.60;;;20.10;98.10;;;;;;5100532;28;20432;-74
2022/09/11 03:45:28;;;;;;;2.83;0.65;;;20.00;98.90;;;;;;5113732;28;20031;-74
2022/09/11 03:47:54;;;;;;;1.30;0.50;;;20.00;99.50;;;;;;5106891;28;20410;-74
2022/09/11 03:50:20;;;;;;;1.17;0.60;;;20.00;98.70;;;;;;5093180;28;20032;-74
2022/09/11 03:52:45;;;;;;;0.52;0.40;;;20.00;98.20;;;;;;5103309;28;20027;-74
2022/09/11 03:55:11;;;;;;;2.03;0.40;;;20.00;96.90;;;;;;5093893;28;20024;-74
2022/09/11 03:57:37;;;;;;;2.75;0.38;;;20.00;96.90;;;;;;5100668;28;20071;-74
2022/09/11 04:00:05;;;;;;;0.68;0.50;;;20.10;96.90;;;;;;5093517;28;20035;-74
2022/09/11 04:02:30;;;;;;;0.47;0.47;;;20.00;97.50;;;;;;5101364;28;20020;-74
2022/09/11 04:04:56;;;;;;;1.65;0.40;;;20.00;98.30;;;;;;5094601;28;20467;-75
2022/09/11 04:07:22;;;;;;;2.83;0.77;;;19.90;97.80;;;;;;5100080;28;20576;-74
2022/09/11 04:09:48;;;;;;;1.27;0.52;;;19.90;98.10;;;;;;5096794;28;20040;-74
2022/09/11 04:12:15;;;;;;;1.40;0.50;;;19.90;97.90;;;;;;5097022;28;20053;-74
2022/09/11 04:14:40;;;;;;;2.17;0.65;;;19.80;98.70;;;;;;5098175;28;20082;-74
2022/09/11 04:17:07;;;;;;;0.77;0.65;;;19.70;98.30;;;;;;5096288;28;20474;-74
2022/09/11 04:19:33;;;;;;;5.15;0.68;;;19.70;98.80;;;;;;5113008;27;20469;-74
2022/09/11 04:21:59;;;;;;;0.52;0.43;;;19.70;98.40;;;;;;5106676;28;20366;-75
2022/09/11 04:24:25;;;;;;;3.13;0.70;;;19.60;98.50;;;;;;5098487;28;20115;-74
2022/09/11 04:26:51;;;;;;;0.70;0.60;;;19.60;98.40;;;;;;5095420;28;20046;-74
2022/09/11 04:29:17;;;;;;;0.90;0.70;;;19.50;98.90;;;;;;5099322;28;20036;-74
2022/09/11 04:31:43;;;;;;;0.77;0.70;;;19.40;99.50;;;;;;5096578;28;20023;-74
2022/09/11 04:34:10;;;;;;;0.95;0.70;;;19.40;99.40;;;;;;5103660;28;20027;-74
2022/09/11 04:36:35;;;;;;;1.25;0.70;;;19.40;99.60;;;;;;5107017;28;20091;-75
2022/09/11 04:39:01;;;;;;;0.60;0.60;;;19.30;99.40;;;;;;5101141;28;20160;-75
2022/09/11 04:41:27;;;;;;;1.23;0.60;;;19.30;99.40;;;;;;5093478;28;20402;-74
2022/09/11 04:43:55;;;;;;;0.60;0.60;;;19.20;99.70;;;;;;5101145;28;20031;-74
2022/09/11 04:46:22;;;;;;;0.77;0.50;;;19.20;99.90;;;;;;5094524;28;20024;-75
2022/09/11 04:48:50;;;;;;;2.25;0.60;;;19.20;99.90;;;;;;5100407;28;20044;-74
2022/09/11 04:51:21;;;;;;;2.53;0.70;;;19.20;99.50;;;;;;5094088;28;20502;-73
2022/09/11 04:53:47;;;;;;;0.60;0.60;;;19.20;99.00;;;;;;5096910;28;20028;-75
2022/09/11 04:56:13;;;;;;;0.55;0.50;;;19.10;99.30;;;;;;5094199;28;20020;-74
2022/09/11 04:58:39;;;;;;;1.33;0.77;;;19.10;99.50;;;;;;5099869;28;20020;-74
2022/09/11 05:01:07;;;;;;;2.70;0.70;;;19.10;98.90;;;;;;5092773;28;20363;-74
2022/09/11 05:03:32;;;;;;;0.50;0.50;;;19.10;98.90;;;;;;5101752;28;20062;-74
2022/09/11 05:06:02;;;;;;;1.15;0.60;;;19.10;98.90;;;;;;5110789;28;20047;-74
2022/09/11 05:08:28;;;;;;;0.80;0.50;;;19.10;98.90;;;;;;5098852;28;20019;-74
2022/09/11 05:10:54;;;;;;;0.65;0.52;;;19.10;98.70;;;;;;5110050;28;20020;-74
2022/09/11 05:13:19;;;;;;;2.38;0.68;;;19.10;98.00;;;;;;5102578;28;20533;-74
2022/09/11 05:15:45;;;;;;;1.05;0.40;;;19.10;97.50;;;;;;5091428;28;20028;-74
2022/09/11 05:18:11;;;;;;;0.75;0.40;;;19.10;97.80;;;;;;5114678;27;20050;-75
2022/09/11 05:20:38;;;;;;;0.70;0.70;;;19.20;98.10;;;;;;5111687;28;20474;-74
2022/09/11 05:23:04;;;;;;;1.17;0.70;;;19.10;98.80;;;;;;5103864;28;20077;-74
2022/09/11 05:25:30;;;;;;;1.05;0.70;;;19.10;99.20;;;;;;5090118;28;20032;-73
2022/09/11 05:27:56;;;;;;;0.30;0.30;;;19.10;99.20;;;;;;5102307;28;20035;-74
2022/09/11 05:30:22;;;;;;;8.02;0.60;;;19.00;99.40;;;;;;5091200;28;20052;-74
2022/09/11 05:32:53;;;;;;;0.85;0.50;;;19.10;98.30;;;;;;5096867;28;20474;-74
2022/09/11 05:35:20;;;;;;;1.10;0.75;;;19.10;98.60;;;;;;5071149;28;20538;-74
2022/09/11 05:37:45;;;;;;;1.00;0.60;;;19.10;99.00;;;;;;5098101;28;20153;-74
2022/09/11 05:40:11;;;;;;;1.48;0.70;;;19.10;99.30;;;;;;5090990;28;20107;-75
2022/09/11 05:42:37;;;;;;;1.48;0.75;;;19.10;98.80;;;;;;5100343;28;20020;-77
2022/09/11 05:45:04;;;;;;;3.22;0.68;;;19.10;99.30;;;;;;5093283;28;20492;-73
2022/09/11 05:47:29;;;;;;;1.38;0.70;;;19.20;98.90;;;;;;5097371;28;20035;-73
2022/09/11 05:49:55;;;;;;;2.50;0.77;;;19.20;99.20;;;;;;5094016;28;20390;-74
2022/09/11 05:52:21;;;;;;;2.95;0.65;;;19.20;99.60;;;;;;5095991;28;20032;-73
2022/09/11 05:54:46;;;;;;;1.92;0.70;;;19.20;99.60;;;;;;5106924;28;20058;-73
2022/09/11 05:57:12;;;;;;;1.98;0.85;;;19.20;99.90;;;;;;5104861;28;20029;-73
2022/09/11 05:59:38;;;;;;;2.40;0.73;;;19.30;99.60;;;;;;5096546;28;20073;-74
2022/09/11 06:02:03;;;;;;;0.88;0.70;;;19.30;99.90;;;;;;5095255;28;20024;-74
2022/09/11 06:04:29;;;;;;;3.08;0.60;;;19.30;99.90;;;;;;5088888;28;20433;-74
2022/09/11 06:06:55;;;;;;;1.55;0.88;;;19.40;99.90;;;;;;5094264;28;20027;-74
2022/09/11 06:09:20;;;;;;;1.13;0.80;;;19.40;99.90;;;;;;5098669;28;20042;-74
2022/09/11 06:11:46;;;;;;;1.40;0.90;;;19.40;99.90;;;;;;5093340;28;20070;-74
2022/09/11 06:14:12;;;;;;;1.95;0.90;;;19.50;99.90;;;;;;5100005;28;20446;-72
2022/09/11 06:16:38;;;;;;;0.77;0.75;;;19.50;99.90;;;;;;5093402;28;20454;-82
2022/09/11 06:19:04;;;;;;;0.80;0.73;;;19.50;99.90;;;;;;5099672;28;20501;-73
2022/09/11 06:21:30;;;;;;;5.45;0.60;;;19.50;99.90;;;;;;5093661;28;20055;-74
2022/09/11 06:23:56;;;;;;;1.27;0.60;;;19.60;99.90;;;;;;5103235;28;20081;-76
2022/09/11 06:26:24;;;;;;;0.70;0.70;;;19.60;99.90;;;;;;5097393;28;20094;-73
2022/09/11 06:28:51;;;;;;;3.08;1.00;;;19.60;99.90;;;;;;5103663;28;20096;-73
2022/09/11 06:31:23;;;;;;;2.17;0.40;;;19.70;99.90;;;;;;5094579;28;20063;-72
2022/09/11 06:33:50;;;;;;;1.20;0.55;;;19.70;99.90;;;;;;5099992;28;20016;-72
2022/09/11 06:36:18;;;;;;;0.85;0.80;;;19.80;99.70;;;;;;5097225;28;20031;-73
2022/09/11 06:38:45;;;;;;;0.77;0.70;;;19.90;99.30;;;;;;5098640;28;20517;-72
2022/09/11 06:41:13;;;;;;;1.60;0.80;;;19.90;99.30;;;;;;5095916;28;20023;-73
2022/09/11 06:43:39;;;;;;;1.30;0.70;;;20.00;99.00;;;;;;5104112;28;20035;-72
2022/09/11 06:46:09;;;;;;;1.35;0.63;;;20.00;99.40;;;;;;5094017;28;20579;-73
2022/09/11 06:48:34;;;;;;;0.63;0.63;;;20.10;99.30;;;;;;5103996;28;20044;-72
2022/09/11 06:51:04;;;;;;;1.58;0.65;;;20.10;99.40;;;;;;5094973;28;20035;-73
2022/09/11 06:53:30;;;;;;;2.28;0.80;;;20.10;99.80;;;;;;5102287;28;20043;-72
2022/09/11 06:56:00;;;;;;;4.68;0.70;;;20.10;99.50;;;;;;5113594;28;20449;-73
2022/09/11 06:58:26;;;;;;;3.72;0.90;;;20.10;99.90;;;;;;5104529;28;20028;-72
2022/09/11 07:00:52;;;;;;;6.82;0.70;;;20.20;99.90;;;;;;5094212;28;20031;-73
2022/09/11 07:03:18;;;;;;;1.20;0.70;;;20.20;99.90;;;;;;5102942;28;20024;-73
2022/09/11 07:05:47;;;;;;;4.88;0.60;;;20.20;99.40;;;;;;5113173;28;20016;-72
2022/09/11 07:08:13;;;;;;;3.63;0.85;;;20.30;99.40;;;;;;5102324;28;20024;-73
2022/09/11 07:10:38;;;;;;;10.20;0.80;;;20.30;99.50;;;;;;5114053;28;20088;-73
2022/09/11 07:13:04;;;;;;;4.63;0.90;;;20.40;98.70;;;;;;5105037;28;20505;-72
2022/09/11 07:15:31;;;;;;;3.03;0.82;;;20.50;98.60;;;;;;5093530;28;20110;-72
2022/09/11 07:17:57;;;;;;;2.67;0.73;;;20.60;98.60;;;;;;5105390;28;20423;-72
2022/09/11 07:20:23;;;;;;;1.42;0.80;;;20.60;98.30;;;;;;5093934;28;20100;-72
2022/09/11 07:22:48;;;;;;;7.93;0.95;;;20.60;97.80;;;;;;5104546;28;20110;-73
2022/09/11 07:25:14;;;;;;;0.50;0.50;;;20.70;98.20;;;;;;5094073;28;20024;-72
2022/09/11 07:27:40;;;;;;;21.08;1.70;;;20.70;97.90;;;;;;5103544;28;20028;-73
2022/09/11 07:30:07;;;;;;;0.50;0.40;;;20.80;98.10;;;;;;5093875;28;20040;-73
2022/09/11 07:32:32;;;;;;;0.85;0.40;;;20.80;97.80;;;;;;5097191;28;20117;-73
2022/09/11 07:35:01;;;;;;;0.43;0.43;;;20.90;97.30;;;;;;5109484;28;20031;-72
2022/09/11 07:37:26;;;;;;;0.47;0.47;;;21.00;97.40;;;;;;5105657;28;20028;-72
2022/09/11 07:39:52;;;;;;;0.93;0.52;;;21.00;97.00;;;;;;5095496;28;20111;-73
2022/09/11 07:42:17;;;;;;;0.80;0.50;;;21.00;97.30;;;;;;5099889;28;20019;-73
2022/09/11 07:44:43;;;;;;;0.93;0.50;;;21.10;97.20;;;;;;5098301;28;20028;-73
2022/09/11 07:47:09;;;;;;;0.93;0.60;;;21.10;97.60;;;;;;5098291;28;20040;-73
2022/09/11 07:49:34;;;;;;;2.75;0.43;;;21.20;97.40;;;;;;5097959;28;20044;-73
2022/09/11 07:52:02;;;;;;;1.23;0.43;;;21.20;97.10;;;;;;5097328;28;20035;-72
2022/09/11 07:54:28;;;;;;;2.15;0.60;;;21.30;96.80;;;;;;5099543;28;20024;-72
2022/09/11 07:56:54;;;;;;;0.75;0.47;;;21.40;96.00;;;;;;5096326;28;20020;-73
2022/09/11 07:59:21;;;;;;;0.80;0.70;;;21.50;95.10;;;;;;5101062;28;20020;-73
2022/09/11 08:01:49;;;;;;;1.27;0.65;;;21.60;95.40;;;;;;5094100;28;20016;-73
2022/09/11 08:04:14;;;;;;;2.65;0.80;;;21.70;95.40;;;;;;5095358;28;20027;-72
2022/09/11 08:06:41;;;;;;;2.78;0.82;;;21.80;96.50;;;;;;5108190;28;20127;-73
2022/09/11 08:09:09;;;;;;;1.58;0.55;;;21.80;96.70;;;;;;5100246;28;20107;-72
2022/09/11 08:11:38;;;;;;;1.10;0.50;;;21.80;95.40;;;;;;5095431;28;20008;-72
2022/09/11 08:14:04;;;;;;;2.72;0.75;;;21.80;95.60;;;;;;5101050;28;20124;-73
2022/09/11 08:16:30;;;;;;;3.72;0.90;;;21.90;96.10;;;;;;5095260;28;20500;-73
2022/09/11 08:18:56;;;;;;;1.55;0.85;;;21.90;95.30;;;;;;5101567;28;20032;-72
2022/09/11 08:21:23;;;;;;;0.80;0.80;;;21.90;95.10;;;;;;5095188;28;20522;-73
2022/09/11 08:23:49;;;;;;;7.15;0.70;;;21.90;95.40;;;;;;5101275;28;20105;-73
2022/09/11 08:26:22;;;;;;;0.70;0.70;;;22.00;94.90;;;;;;5093548;28;20035;-73
2022/09/11 08:28:50;;;;;;;1.67;0.50;;;22.00;94.30;;;;;;5097717;28;20036;-73
2022/09/11 08:31:19;;;;;;;2.38;0.95;;;22.10;94.40;;;;;;5093717;28;20246;-72
2022/09/11 08:33:45;;;;;;;1.27;0.65;;;22.10;94.90;;;;;;5096619;28;20027;-73
2022/09/11 08:36:14;;;;;;;1.20;0.60;;;22.10;93.90;;;;;;5094245;28;20028;-73
2022/09/11 08:38:42;;;;;;;4.28;0.63;;;22.10;94.50;;;;;;5101324;28;20089;-72
2022/09/11 08:41:22;;;;;;;2.40;0.60;;;22.10;93.80;;;;;;5093362;28;20072;-72
2022/09/11 08:44:22;;;;;;;0.93;0.60;;;22.10;94.30;;;;;;5096130;28;20024;-72
2022/09/11 08:46:54;;;;;;;4.82;1.02;;;22.10;93.90;;;;;;5086537;28;20074;-72
2022/09/11 08:49:23;;;;;;;2.15;0.75;;;22.20;94.40;;;;;;5095998;28;20090;-73
2022/09/11 08:51:50;;;;;;;3.75;0.75;;;22.20;93.70;;;;;;5109283;28;20038;-73
2022/09/11 08:54:26;;;;;;;5.15;0.77;;;22.20;93.50;;;;;;5094088;28;20092;-73
2022/09/11 08:56:56;;;;;;;13.02;1.30;;;22.30;93.30;;;;;;5105932;28;20024;-72
2022/09/11 08:59:25;;;;;;;3.60;0.70;;;22.30;93.50;;;;;;5099800;28;20386;-73
2022/09/11 09:02:06;;;;;;;2.30;0.60;;;22.40;93.40;;;;;;5094681;28;20050;-73
2022/09/11 09:04:44;;;;;;;2.15;0.80;;;22.40;93.80;;;;;;5098285;28;20099;-73
2022/09/11 09:07:16;;;;;;;2.67;0.75;;;22.40;94.90;;;;;;5097201;28;20085;-73
2022/09/11 09:10:00;;;;;;;2.78;0.70;;;22.40;95.50;;;;;;5095254;28;20119;-73
2022/09/11 09:12:59;;;;;;;8.20;0.80;;;22.30;95.60;;;;;;5097049;28;20502;-73
2022/09/11 09:15:45;;;;;;;5.28;1.00;;;22.40;94.90;;;;;;5029980;28;20067;-73
2022/09/11 09:18:20;;;;;;;1.08;0.55;;;22.40;95.40;;;;;;5103372;28;20115;-73
2022/09/11 09:20:59;;;;;;;4.13;0.57;;;22.40;95.40;;;;;;5091444;28;20017;-72
2022/09/11 09:23:30;;;;;;;1.77;0.60;;;22.40;95.50;;;;;;5102436;28;20020;-72
2022/09/11 09:25:56;;;;;;;0.70;0.70;;;22.40;95.70;;;;;;5092071;28;20023;-72
2022/09/11 09:28:43;;;;;;;1.00;0.88;;;22.40;95.70;;;;;;5099766;28;20023;-73
2022/09/11 09:31:13;;;;;;;0.70;0.70;;;22.40;95.60;;;;;;5099097;28;20040;-73
2022/09/11 09:33:51;;;;;;;0.60;0.60;;;22.40;96.10;;;;;;5100801;28;20014;-72
2022/09/11 09:36:19;;;;;;;0.70;0.60;;;22.40;95.90;;;;;;5094008;28;20490;-73
2022/09/11 09:38:45;;;;;;;1.75;0.80;;;22.40;94.90;;;;;;5085277;28;20477;-73
2022/09/11 09:41:20;;;;;;;0.80;0.52;;;22.40;96.10;;;;;;5109791;28;20394;-73
2022/09/11 09:44:03;;;;;;;1.13;0.70;;;22.40;95.70;;;;;;5094510;28;20486;-73
2022/09/11 09:46:55;;;;;;;0.73;0.40;;;22.50;95.00;;;;;;5092119;28;20047;-73
2022/09/11 09:49:24;;;;;;;5.15;0.93;;;22.50;92.70;;;;;;5093117;28;20516;-73
2022/09/11 09:51:50;;;;;;;3.95;0.63;;;22.60;93.30;;;;;;5105107;28;20051;-73
2022/09/11 09:54:19;;;;;;;2.95;0.50;;;22.60;93.50;;;;;;5070885;28;20054;-73
2022/09/11 09:57:09;;;;;;;0.95;0.70;;;22.70;92.30;;;;;;5085268;28;20378;-73
2022/09/11 09:59:51;;;;;;;0.70;0.50;;;22.70;93.30;;;;;;5098988;28;20057;-73
2022/09/11 10:02:37;;;;;;;;;;;22.70;92.30;;;;;;5090076;28;20551;-73
2022/09/11 10:05:18;;;;;;;0.73;0.52;;;22.80;91.30;;;;;;5092789;28;20356;-72
2022/09/11 10:07:49;;;;;;;1.35;1.25;;;22.80;91.20;;;;;;5101237;28;20023;-72
2022/09/11 10:10:22;;;;;;;0.63;0.63;;;22.80;91.10;;;;;;5091059;28;20043;-73
2022/09/11 10:12:47;;;;;;;2.85;0.63;;;22.90;91.00;;;;;;5102528;28;20099;-73
2022/09/11 10:15:21;;;;;;;1.13;0.40;;;22.90;90.60;;;;;;5091552;28;20028;-73
2022/09/11 10:17:48;;;;;;;1.35;0.50;;;23.00;92.00;;;;;;5101638;28;20042;-73
2022/09/11 10:20:17;;;;;;;0.50;0.50;;;23.00;90.90;;;;;;5090162;28;20081;-73
2022/09/11 10:22:44;;;;;;;3.95;2.42;;;23.10;92.80;;;;;;5100504;28;20276;-72
2022/09/11 10:25:18;;;;;;;5.70;4.63;;;23.10;93.20;;;;;;5091819;28;20024;-73
2022/09/11 10:28:10;;;;;;;3.10;2.60;;;23.00;93.70;;;;;;5096756;28;20028;-72
2022/09/11 10:30:41;;;;;;;2.33;2.03;;;23.00;93.50;;;;;;5078933;28;20139;-72
2022/09/11 10:33:26;;;;;;;0.70;0.70;;;22.90;94.10;;;;;;5102304;28;20375;-72
2022/09/11 10:35:57;;;;;;;0.47;0.47;;;22.90;94.30;;;;;;5089652;28;20074;-73
2022/09/11 10:38:32;;;;;;;4.72;0.90;;;23.00;94.10;;;;;;5100936;28;20076;-72
2022/09/11 10:40:58;;;;;;;0.43;0.43;;;23.00;94.40;;;;;;5089951;28;20020;-72
2022/09/11 10:43:41;;;;;;;2.30;0.60;;;22.90;94.00;;;;;;5097660;28;20020;-73
2022/09/11 10:46:23;;;;;;;1.30;0.63;;;22.90;95.60;;;;;;5107782;28;20589;-73
2022/09/11 10:48:54;;;;;;;;;;;22.90;94.90;;;;;;5086061;28;20050;-72
2022/09/11 10:51:20;;;;;;;3.15;2.05;;;22.90;95.20;;;;;;5106060;28;19953;-72
2022/09/11 10:54:15;;;;;;;1.20;0.52;;;23.00;95.80;;;;;;5101655;28;20031;-72
2022/09/11 10:57:07;;;;;;;0.50;0.43;;;23.00;95.80;;;;;;5105798;28;20126;-72
2022/09/11 10:59:39;;;;;;;0.80;0.38;;;23.00;96.10;;;;;;5097492;28;20106;-72
2022/09/11 11:02:24;;;;;;;;;;;23.00;96.10;;;;;;5086013;28;20035;-72
2022/09/11 11:04:49;;;;;;;4.93;0.50;;;22.90;95.80;;;;;;5094505;28;20362;-73
2022/09/11 11:07:18;;;;;;;0.43;0.43;;;23.00;95.80;;;;;;5096557;28;20115;-72
2022/09/11 11:09:58;;;;;;;1.42;0.50;;;23.10;95.10;;;;;;5113814;28;20031;-72
2022/09/11 11:12:53;;;;;;;0.90;0.43;;;23.10;95.50;;;;;;5108057;28;20030;-72
2022/09/11 11:15:33;;;;;;;0.75;0.40;;;23.10;94.70;;;;;;5073644;28;20115;-73
2022/09/11 11:18:24;;;;;;;0.60;0.50;;;23.10;94.80;;;;;;5098391;28;20474;-73
2022/09/11 11:21:11;;;;;;;0.38;0.30;;;23.20;93.60;;;;;;5112989;28;20030;-73
2022/09/11 11:24:20;;;;;;;1.60;0.57;;;23.20;92.60;;;;;;5103491;28;20012;-73
2022/09/11 11:27:19;;;;;;;0.60;0.20;;;23.30;92.10;;;;;;5095791;28;20028;-72
2022/09/11 11:30:07;;;;;;;0.63;0.35;;;23.30;91.00;;;;;;5102812;28;20043;-73
2022/09/11 11:32:58;;;;;;;0.32;0.20;;;23.40;91.70;;;;;;5096182;28;20024;-72
2022/09/11 11:35:44;;;;;;;16.98;9.98;;;23.40;91.60;;;;;;5073199;28;20025;-72
2022/09/11 11:38:26;;;;;;;2.65;0.80;;;23.40;92.00;;;;;;5104656;28;20027;-72
2022/09/11 11:41:14;;;;;;;1.95;1.60;;;23.30;92.40;;;;;;5093710;28;20024;-72
2022/09/11 11:43:42;;;;;;;1.95;1.38;;;23.30;93.10;;;;;;5102740;28;20023;-72
2022/09/11 11:46:25;;;;;;;1.98;0.40;;;23.40;94.30;;;;;;5094726;28;20028;-72
2022/09/11 11:49:03;;;;;;;1.63;0.98;;;23.50;94.10;;;;;;5099014;28;20044;-72
2022/09/11 11:51:58;;;;;;;1.40;0.60;;;23.40;94.40;;;;;;5095815;28;20019;-73
2022/09/11 11:54:36;;;;;;;1.38;0.70;;;23.50;94.10;;;;;;5097628;28;20073;-73
2022/09/11 11:57:10;;;;;;;0.85;0.50;;;23.50;93.70;;;;;;5106741;28;20253;-72
2022/09/11 11:59:46;;;;;;;3.30;0.82;;;23.50;94.10;;;;;;5098896;28;20020;-73
2022/09/11 12:02:32;;;;;;;0.43;0.43;;;23.60;95.00;;;;;;5097673;28;20030;-72
2022/09/11 12:05:08;;;;;;;2.15;0.80;;;23.70;95.30;;;;;;5096104;28;20032;-72
2022/09/11 12:07:36;;;;;;;1.23;0.88;;;23.80;96.20;;;;;;5100584;28;20120;-72
2022/09/11 12:10:05;;;;;;;1.23;0.80;;;24.50;96.00;;;;;;5093861;28;20540;-72
2022/09/11 12:12:34;;;;;;;1.80;0.70;;;25.70;94.20;;;;;;5100447;28;20027;-73
2022/09/11 12:15:06;;;;;;;2.55;0.70;;;26.70;92.30;;;;;;5095433;28;20383;-72
2022/09/11 12:17:34;;;;;;;1.90;1.20;;;27.90;90.10;;;;;;5101463;28;20026;-73
2022/09/11 12:20:11;;;;;;;1.98;1.10;;;28.90;88.40;;;;;;5093593;28;20055;-73
2022/09/11 12:22:39;;;;;;;1.00;0.55;;;30.00;82.70;;;;;;5100498;28;20034;-73
2022/09/11 12:25:27;;;;;;;0.60;0.40;;;30.60;80.80;;;;;;5092979;28;20445;-73
2022/09/11 12:28:09;;;;;;;0.45;0.30;;;31.10;78.60;;;;;;5090416;28;20036;-73
2022/09/11 12:30:55;;;;;;;0.30;0.30;;;31.40;78.00;;;;;;5080050;28;20478;-73
2022/09/11 12:33:48;;;;;;;3.97;2.08;;;32.00;76.40;;;;;;5102118;28;20028;-74
2022/09/11 12:36:23;;;;;;;2.53;0.90;;;32.80;76.70;;;;;;5090795;28;20040;-72
2022/09/11 12:39:15;;;;;;;0.85;0.38;;;32.80;74.10;;;;;;5097688;28;20025;-73
2022/09/11 12:41:41;;;;;;;0.80;0.68;;;33.10;72.60;;;;;;5094941;28;21057;-74
2022/09/11 12:44:56;;;;;;;0.43;0.30;;;33.20;73.50;;;;;;5101112;28;20063;-73
2022/09/11 12:47:23;;;;;;;1.52;0.30;;;33.40;72.50;;;;;;5088539;28;20522;-74
2022/09/11 12:50:05;;;;;;;0.68;0.30;;;33.10;72.40;;;;;;5095983;28;20043;-73
2022/09/11 12:52:50;;;;;;;0.70;0.40;;;33.30;73.00;;;;;;5100394;28;20031;-73
2022/09/11 12:55:27;;;;;;;0.47;0.32;;;33.40;74.00;;;;;;5092289;28;20028;-73
2022/09/11 12:57:53;;;;;;;0.68;0.43;;;33.70;73.60;;;;;;5103343;28;20448;-74
2022/09/11 13:00:35;;;;;;;2.53;0.50;;;34.40;71.80;;;;;;5077869;28;20016;-73
2022/09/11 13:03:02;;;;;;;1.17;0.60;;;34.90;70.90;;;;;;5103738;28;20367;-74
2022/09/11 13:05:38;;;;;;;0.90;0.47;;;35.30;72.30;;;;;;5090199;28;20041;-73
2022/09/11 13:08:22;;;;;;;3.13;0.55;;;35.70;70.20;;;;;;5103435;28;20053;-73
2022/09/11 13:10:49;;;;;;;0.60;0.40;;;35.60;71.70;;;;;;5091391;28;20119;-73